Terminal Aerodrome Forecast
Issued by NWS

Home | Current Version | Previous Version | Text Only | Print | Product List | Glossary On
Versions: 1 2 3 4 5 6 7 8 9 10 11 12 13 14 15 16 17 18 19
000
FTUS41 KPBZ 291723
TAFBVI
TAF
KBVI 291723Z 2918/3018 09008KT P6SM BKN015 OVC025
     FM292200 09010G20KT P6SM -SHRA BKN025
     FM300400 10012KT P6SM -SHRA OVC035
     FM301200 09010KT P6SM VCSH OVC035=

USA.gov is the U.S. government's official web portal to all federal, state and local government web resources and services.